Time;durP1;ratioP1;P1;durP2;ratioP2;P2;SDS_P1;SDS_P2;PMS_P1;PMS_P2;Temp;Humidity;BMP_temperature;BMP_pressure;BME280_temperature;BME280_humidity;BME280_pressure;Samples;Min_cycle;Max_cycle;Signal;HPM_P1;HPM_P2
2022/07/10 00:01:23;;;;;;;0.00;0.00;;;15.30;99.90;;;;;;5024954;28;20829;-81
2022/07/10 00:03:51;;;;;;;0.00;0.00;;;15.40;99.90;;;;;;5025094;28;20941;-81
2022/07/10 00:06:19;;;;;;;0.00;0.00;;;15.40;99.90;;;;;;5026296;28;20434;-79
2022/07/10 00:08:48;;;;;;;0.00;0.00;;;15.40;99.90;;;;;;5026387;28;20754;-79
2022/07/10 00:11:16;;;;;;;0.00;0.00;;;15.50;99.90;;;;;;5026726;28;20663;-80
2022/07/10 00:13:44;;;;;;;0.00;0.00;;;15.50;99.90;;;;;;5025038;28;20630;-79
2022/07/10 00:16:12;;;;;;;0.00;0.00;;;15.50;99.90;;;;;;5028054;28;20461;-78
2022/07/10 00:18:41;;;;;;;0.00;0.00;;;15.50;99.90;;;;;;5038377;28;20453;-79
2022/07/10 00:21:09;;;;;;;0.00;0.00;;;15.50;99.90;;;;;;5041504;28;20452;-78
2022/07/10 00:23:37;;;;;;;0.00;0.00;;;15.50;99.90;;;;;;5037412;28;20505;-78
2022/07/10 00:26:06;;;;;;;0.00;0.00;;;15.50;99.90;;;;;;5036714;28;20449;-79
2022/07/10 00:28:34;;;;;;;0.00;0.00;;;15.40;99.90;;;;;;5035512;28;20488;-78
2022/07/10 00:31:02;;;;;;;0.00;0.00;;;15.40;99.90;;;;;;5035071;28;20477;-78
2022/07/10 00:33:31;;;;;;;0.00;0.00;;;15.30;99.90;;;;;;5037004;28;20479;-78
2022/07/10 00:36:01;;;;;;;0.00;0.00;;;15.30;99.90;;;;;;5034919;28;20778;-79
2022/07/10 00:38:29;;;;;;;0.00;0.00;;;15.20;99.90;;;;;;5039127;28;20461;-79
2022/07/10 00:40:57;;;;;;;0.00;0.00;;;15.10;99.90;;;;;;5037387;28;21066;-79
2022/07/10 00:43:25;;;;;;;0.00;0.00;;;15.00;99.90;;;;;;5037832;28;20452;-79
2022/07/10 00:45:53;;;;;;;0.00;0.00;;;15.00;99.90;;;;;;5037861;28;20507;-79
2022/07/10 00:48:21;;;;;;;0.00;0.00;;;15.00;99.90;;;;;;5034107;28;20511;-81
2022/07/10 00:50:50;;;;;;;0.00;0.00;;;15.00;99.90;;;;;;5043164;28;21164;-80
2022/07/10 00:53:19;;;;;;;0.00;0.00;;;14.90;99.90;;;;;;5040037;28;20496;-82
2022/07/10 00:55:48;;;;;;;0.00;0.00;;;14.90;99.90;;;;;;5040142;28;20453;-81
2022/07/10 00:58:16;;;;;;;0.00;0.00;;;15.00;99.90;;;;;;5036844;28;20457;-81
2022/07/10 01:00:44;;;;;;;0.00;0.00;;;15.10;99.90;;;;;;5034255;28;20918;-78
2022/07/10 01:03:13;;;;;;;0.00;0.00;;;15.20;99.90;;;;;;5031681;28;20453;-78
2022/07/10 01:05:40;;;;;;;0.00;0.00;;;15.20;99.90;;;;;;5031015;28;20932;-80
2022/07/10 01:08:08;;;;;;;0.00;0.00;;;15.20;99.90;;;;;;5030572;28;20492;-80
2022/07/10 01:10:39;;;;;;;0.00;0.00;;;15.30;99.90;;;;;;5044600;28;20496;-79
2022/07/10 01:13:08;;;;;;;0.00;0.00;;;15.30;99.90;;;;;;5040106;28;20556;-78
2022/07/10 01:15:37;;;;;;;0.00;0.00;;;15.20;99.90;;;;;;5032958;28;20445;-79
2022/07/10 01:18:05;;;;;;;0.00;0.00;;;15.20;99.90;;;;;;5031782;28;20899;-78
2022/07/10 01:20:34;;;;;;;0.00;0.00;;;15.20;99.90;;;;;;5028178;28;20528;-80
2022/07/10 01:23:03;;;;;;;0.00;0.00;;;15.20;99.90;;;;;;5024425;28;20759;-80
2022/07/10 01:25:31;;;;;;;0.00;0.00;;;15.20;99.90;;;;;;5023396;28;20859;-80
2022/07/10 01:27:59;;;;;;;0.00;0.00;;;15.20;99.90;;;;;;5023141;28;20542;-80
2022/07/10 01:30:28;;;;;;;0.00;0.00;;;15.20;99.90;;;;;;5025139;28;20516;-80
2022/07/10 01:32:55;;;;;;;0.00;0.00;;;15.20;99.90;;;;;;5023325;28;20453;-80
2022/07/10 01:35:23;;;;;;;0.00;0.00;;;15.20;99.90;;;;;;5023172;28;20457;-81
2022/07/10 01:37:51;;;;;;;0.00;0.00;;;15.30;99.90;;;;;;5022660;28;20492;-80
2022/07/10 01:40:20;;;;;;;0.00;0.00;;;15.30;99.90;;;;;;5024138;28;20768;-80
2022/07/10 01:42:48;;;;;;;0.00;0.00;;;15.30;99.90;;;;;;5024394;28;20448;-80
2022/07/10 01:45:17;;;;;;;0.00;0.00;;;15.30;99.90;;;;;;5032694;28;20469;-80
2022/07/10 01:47:45;;;;;;;0.00;0.00;;;15.40;99.90;;;;;;5024199;28;20653;-80
2022/07/10 01:50:13;;;;;;;0.00;0.00;;;15.40;99.90;;;;;;5023027;28;20815;-81
2022/07/10 01:52:41;;;;;;;0.00;0.00;;;15.40;99.90;;;;;;5024578;28;20483;-80
2022/07/10 01:55:10;;;;;;;0.00;0.00;;;15.30;99.90;;;;;;5027711;28;20613;-79
2022/07/10 01:57:39;;;;;;;0.00;0.00;;;15.30;99.90;;;;;;5026235;28;20473;-80
2022/07/10 02:00:09;;;;;;;0.00;0.00;;;15.30;99.90;;;;;;5028662;28;20471;-79
2022/07/10 02:02:37;;;;;;;0.00;0.00;;;15.30;99.90;;;;;;5028408;28;20521;-79
2022/07/10 02:05:05;;;;;;;0.00;0.00;;;15.30;99.90;;;;;;5023961;28;20475;-79
2022/07/10 02:07:33;;;;;;;0.00;0.00;;;15.20;99.90;;;;;;5024000;28;20473;-79
2022/07/10 02:10:01;;;;;;;0.00;0.00;;;15.20;99.90;;;;;;5021435;28;20476;-78
2022/07/10 02:12:29;;;;;;;0.00;0.00;;;15.20;99.90;;;;;;5018333;28;20675;-80
2022/07/10 02:15:00;;;;;;;0.00;0.00;;;15.20;99.90;;;;;;5021826;28;20437;-80
2022/07/10 02:22:45;;;;;;;0.00;0.00;;;15.20;99.90;;;;;;5010316;23;20286;-88
2022/07/10 02:25:13;;;;;;;0.00;0.00;;;15.20;99.90;;;;;;5013093;28;20442;-89
2022/07/10 02:27:41;;;;;;;0.00;0.00;;;15.20;99.90;;;;;;5000152;28;20456;-87
2022/07/10 02:30:11;;;;;;;0.00;0.00;;;15.20;99.90;;;;;;4995008;28;20480;-88
2022/07/10 02:32:39;;;;;;;0.00;0.00;;;15.30;99.90;;;;;;4995221;28;20486;-88
2022/07/10 02:35:07;;;;;;;0.00;0.00;;;15.30;99.90;;;;;;5006426;28;20510;-87
2022/07/10 02:37:35;;;;;;;0.00;0.00;;;15.30;99.90;;;;;;5014849;28;20484;-87
2022/07/10 02:40:04;;;;;;;0.00;0.00;;;15.30;99.90;;;;;;5014969;28;20454;-87
2022/07/10 02:42:32;;;;;;;0.00;0.00;;;15.30;99.90;;;;;;5018326;28;20485;-87
2022/07/10 02:45:00;;;;;;;0.00;0.00;;;15.30;99.90;;;;;;5018229;28;20446;-86
2022/07/10 02:47:29;;;;;;;0.00;0.00;;;15.30;99.90;;;;;;5017712;28;20462;-87
2022/07/10 02:49:57;;;;;;;0.00;0.00;;;15.30;99.90;;;;;;5018420;28;20442;-86
2022/07/10 02:52:25;;;;;;;0.00;0.00;;;15.30;99.90;;;;;;5017887;28;20482;-87
2022/07/10 02:54:53;;;;;;;0.00;0.00;;;15.40;99.90;;;;;;5017563;28;20427;-88
2022/07/10 02:57:21;;;;;;;0.00;0.00;;;15.40;99.90;;;;;;5017528;28;20443;-87
2022/07/10 02:59:49;;;;;;;0.00;0.00;;;15.40;99.90;;;;;;5016886;28;20466;-86
2022/07/10 03:02:17;;;;;;;0.00;0.00;;;15.40;99.90;;;;;;5016719;28;20467;-87
2022/07/10 03:04:47;;;;;;;0.00;0.00;;;15.40;99.90;;;;;;5016433;28;20485;-86
2022/07/10 03:07:15;;;;;;;0.00;0.00;;;15.40;99.90;;;;;;5011220;28;20469;-90
2022/07/10 03:09:42;;;;;;;0.00;0.00;;;15.40;99.90;;;;;;5010894;28;20438;-89
2022/07/10 03:12:10;;;;;;;0.00;0.00;;;15.40;99.90;;;;;;4998885;28;21028;-87
2022/07/10 03:14:38;;;;;;;0.00;0.00;;;15.40;99.90;;;;;;4995613;28;20439;-90
2022/07/10 03:17:06;;;;;;;0.00;0.00;;;15.50;99.90;;;;;;4996111;28;20457;-90
2022/07/10 03:19:34;;;;;;;0.00;0.00;;;15.50;99.90;;;;;;4995839;28;21206;-90
2022/07/10 03:22:04;;;;;;;0.00;0.00;;;15.50;99.90;;;;;;4998554;28;21063;-91
2022/07/10 03:24:32;;;;;;;0.00;0.00;;;15.50;99.90;;;;;;5008611;28;20439;-87
2022/07/10 03:27:00;;;;;;;0.00;0.00;;;15.50;99.90;;;;;;5006180;28;20447;-89
2022/07/10 03:29:29;;;;;;;0.00;0.00;;;15.50;99.90;;;;;;4997508;28;20459;-90
2022/07/10 03:31:57;;;;;;;0.00;0.00;;;15.40;99.90;;;;;;4997368;28;20553;-89
2022/07/10 03:34:25;;;;;;;0.00;0.00;;;15.40;99.90;;;;;;4996031;28;20530;-89
2022/07/10 03:36:53;;;;;;;0.00;0.00;;;15.40;99.90;;;;;;4996027;28;21189;-89
2022/07/10 03:39:22;;;;;;;0.00;0.00;;;15.40;99.90;;;;;;4997009;28;21106;-91
2022/07/10 03:41:50;;;;;;;0.00;0.00;;;15.50;99.90;;;;;;4996473;28;20896;-90
2022/07/10 03:44:18;;;;;;;0.00;0.00;;;15.50;99.90;;;;;;4996252;28;20485;-90
2022/07/10 03:46:46;;;;;;;0.00;0.00;;;15.50;99.90;;;;;;4994925;28;21114;-91
2022/07/10 03:49:14;;;;;;;0.00;0.00;;;15.50;99.90;;;;;;4997219;28;20522;-90
2022/07/10 03:51:42;;;;;;;0.00;0.00;;;15.50;99.90;;;;;;4996874;28;20474;-90
2022/07/10 03:54:10;;;;;;;0.00;0.00;;;15.40;99.90;;;;;;4999809;28;20467;-90
2022/07/10 03:59:25;;;;;;;0.00;0.00;;;15.40;99.90;;;;;;4996940;28;20465;-90
2022/07/10 04:01:53;;;;;;;0.00;0.00;;;15.50;99.90;;;;;;4998497;28;20485;-89
2022/07/10 04:04:21;;;;;;;0.00;0.00;;;15.50;99.90;;;;;;5003928;28;20447;-90
2022/07/10 04:06:49;;;;;;;0.00;0.00;;;15.50;99.90;;;;;;5014401;28;20435;-88
2022/07/10 04:09:17;;;;;;;0.00;0.00;;;15.60;99.90;;;;;;5015656;28;20459;-89
2022/07/10 04:11:48;;;;;;;0.00;0.00;;;15.60;99.90;;;;;;5010955;28;20474;-90
2022/07/10 04:14:16;;;;;;;0.00;0.00;;;15.60;99.90;;;;;;4993568;28;20464;-90
2022/07/10 04:16:44;;;;;;;0.00;0.00;;;15.60;99.90;;;;;;4979565;28;20868;-91
2022/07/10 04:19:13;;;;;;;0.00;0.00;;;15.60;99.90;;;;;;4994481;28;21093;-90
2022/07/10 04:21:41;;;;;;;0.00;0.00;;;15.50;99.90;;;;;;4996872;28;20439;-90
2022/07/10 04:24:12;;;;;;;0.00;0.00;;;15.60;99.90;;;;;;4996086;28;20538;-89
2022/07/10 04:26:40;;;;;;;0.00;0.00;;;15.60;99.90;;;;;;4998797;28;20485;-88
2022/07/10 04:29:09;;;;;;;0.00;0.00;;;15.70;99.90;;;;;;4998412;28;20506;-89
2022/07/10 04:31:37;;;;;;;0.00;0.00;;;15.70;99.90;;;;;;4990901;28;20518;-89
2022/07/10 04:34:05;;;;;;;0.00;0.00;;;15.70;99.90;;;;;;4990012;28;20462;-89
2022/07/10 04:36:33;;;;;;;0.00;0.00;;;15.60;99.90;;;;;;4990051;28;20471;-89
2022/07/10 04:39:01;;;;;;;0.00;0.00;;;15.50;99.90;;;;;;4989512;28;21000;-88
2022/07/10 04:41:29;;;;;;;0.00;0.00;;;15.50;99.90;;;;;;4989905;28;20715;-89
2022/07/10 04:43:57;;;;;;;0.00;0.00;;;15.50;99.90;;;;;;4989199;28;20475;-89
2022/07/10 04:46:26;;;;;;;0.00;0.00;;;15.50;99.90;;;;;;4987321;28;20542;-88
2022/07/10 04:48:54;;;;;;;0.00;0.00;;;15.50;99.90;;;;;;4990537;28;20562;-88
2022/07/10 04:51:23;;;;;;;0.00;0.00;;;15.50;99.90;;;;;;4991188;28;21063;-89
2022/07/10 04:53:51;;;;;;;0.00;0.00;;;15.60;99.90;;;;;;4988467;28;20533;-89
2022/07/10 04:56:19;;;;;;;0.00;0.00;;;15.50;99.90;;;;;;4989423;28;20507;-89
2022/07/10 04:58:49;;;;;;;0.00;0.00;;;15.70;99.90;;;;;;4990578;28;20525;-89
2022/07/10 05:01:57;;;;;;;0.00;0.00;;;15.70;99.90;;;;;;4989265;28;20502;-89
2022/07/10 05:04:25;;;;;;;0.00;0.00;;;15.80;99.90;;;;;;4974472;28;20460;-90
2022/07/10 05:09:59;;;;;;;0.00;0.00;;;15.80;99.90;;;;;;4988437;28;20459;-92
2022/07/10 05:12:28;;;;;;;0.00;0.00;;;15.70;99.90;;;;;;4986331;28;20472;-92
2022/07/10 05:14:56;;;;;;;0.00;0.00;;;15.70;99.90;;;;;;4980096;28;20945;-91
2022/07/10 05:17:29;;;;;;;0.00;0.00;;;15.90;99.90;;;;;;4984124;28;20454;-89
2022/07/10 05:20:19;;;;;;;0.00;0.00;;;15.90;99.90;;;;;;4990026;28;20459;-95
2022/07/10 05:22:49;;;;;;;0.00;0.00;;;15.90;99.90;;;;;;4990618;28;20518;-89
2022/07/10 05:25:30;;;;;;;0.00;0.00;;;15.80;99.90;;;;;;4993108;28;20560;-91
2022/07/10 05:27:58;;;;;;;0.00;0.00;;;15.80;99.90;;;;;;5001777;23;20509;-74
2022/07/10 05:30:26;;;;;;;0.00;0.00;;;15.90;99.90;;;;;;4987133;28;20537;-79
2022/07/10 05:32:55;;;;;;;0.00;0.00;;;15.90;99.90;;;;;;4970450;28;21160;-77
2022/07/10 05:35:23;;;;;;;0.00;0.00;;;15.90;99.90;;;;;;4964977;28;20456;-76
2022/07/10 05:37:51;;;;;;;0.00;0.00;;;15.90;99.90;;;;;;4962202;28;20463;-71
2022/07/10 05:40:19;;;;;;;0.00;0.00;;;16.00;99.90;;;;;;4959914;28;20447;-69
2022/07/10 05:42:47;;;;;;;0.00;0.00;;;16.00;99.90;;;;;;4962253;28;20456;-67
2022/07/10 05:45:15;;;;;;;0.00;0.00;;;16.10;99.90;;;;;;4968482;28;21188;-67
2022/07/10 05:47:44;;;;;;;0.00;0.00;;;16.20;99.90;;;;;;4976978;28;20591;-76
2022/07/10 05:50:13;;;;;;;0.00;0.00;;;16.20;99.90;;;;;;4961988;28;20451;-74
2022/07/10 05:52:41;;;;;;;0.00;0.00;;;16.20;99.90;;;;;;4959268;28;20570;-73
2022/07/10 05:55:09;;;;;;;0.00;0.00;;;16.30;99.90;;;;;;4968801;28;20551;-72
2022/07/10 05:57:37;;;;;;;0.00;0.00;;;16.30;99.90;;;;;;4979285;28;20538;-72
2022/07/10 06:00:07;;;;;;;0.00;0.00;;;16.30;99.90;;;;;;4979005;28;20454;-72
2022/07/10 06:02:35;;;;;;;0.00;0.00;;;16.30;99.90;;;;;;4978391;28;20474;-72
2022/07/10 06:05:03;;;;;;;0.00;0.00;;;16.30;99.90;;;;;;4978615;28;20949;-71
2022/07/10 06:07:32;;;;;;;0.00;0.00;;;16.40;99.90;;;;;;4973835;28;20472;-71
2022/07/10 06:10:00;;;;;;;0.00;0.00;;;16.40;99.90;;;;;;4963316;28;20452;-71
2022/07/10 06:12:43;;;;;;;0.00;0.00;;;16.50;99.90;;;;;;4979249;28;20600;-72
2022/07/10 06:15:19;;;;;;;0.00;0.00;;;16.50;99.90;;;;;;4968620;28;20891;-72
2022/07/10 06:17:47;;;;;;;0.00;0.00;;;16.60;99.90;;;;;;4975462;28;20467;-73
2022/07/10 06:20:15;;;;;;;0.00;0.00;;;16.70;99.90;;;;;;4965244;28;20474;-74
2022/07/10 06:22:45;;;;;;;0.00;0.00;;;16.60;99.90;;;;;;4982343;28;20454;-73
2022/07/10 06:25:12;;;;;;;0.00;0.00;;;16.60;99.90;;;;;;4980787;28;20561;-71
2022/07/10 06:27:40;;;;;;;0.00;0.00;;;16.60;99.90;;;;;;4968520;28;20474;-81
2022/07/10 06:30:09;;;;;;;0.00;0.00;;;16.50;99.90;;;;;;4984837;28;20444;-78
2022/07/10 06:32:37;;;;;;;0.00;0.00;;;16.60;99.90;;;;;;4970176;28;20490;-73
2022/07/10 06:35:07;;;;;;;0.00;0.00;;;16.60;99.90;;;;;;4978493;28;21002;-72
2022/07/10 06:37:35;;;;;;;0.00;0.00;;;16.60;99.90;;;;;;4981541;28;20562;-73
2022/07/10 06:40:05;;;;;;;0.00;0.00;;;16.80;99.90;;;;;;4972518;28;20886;-74
2022/07/10 06:42:33;;;;;;;0.00;0.00;;;16.90;99.90;;;;;;4967746;28;20703;-72
2022/07/10 06:45:02;;;;;;;0.00;0.00;;;17.00;99.90;;;;;;4982205;28;20475;-73
2022/07/10 06:50:15;;;;;;;0.00;0.00;;;17.00;99.90;;;;;;4982289;28;20526;-73
2022/07/10 06:52:43;;;;;;;0.00;0.00;;;17.00;99.90;;;;;;4971149;28;20478;-73
2022/07/10 06:55:13;;;;;;;0.00;0.00;;;17.10;99.90;;;;;;4962475;28;20484;-72
2022/07/10 06:57:41;;;;;;;0.00;0.00;;;17.10;99.90;;;;;;4969328;28;20849;-73
2022/07/10 07:00:11;;;;;;;0.00;0.00;;;17.10;99.90;;;;;;4962654;28;20954;-73
2022/07/10 07:02:39;;;;;;;0.00;0.00;;;16.90;99.90;;;;;;4962268;28;20444;-73
2022/07/10 07:05:08;;;;;;;0.00;0.00;;;16.90;99.90;;;;;;4968065;28;20455;-72
2022/07/10 07:07:37;;;;;;;0.00;0.00;;;17.00;99.90;;;;;;4975609;28;20565;-73
2022/07/10 07:10:07;;;;;;;0.00;0.00;;;17.00;99.90;;;;;;4981503;28;20462;-73
2022/07/10 07:12:36;;;;;;;0.00;0.00;;;16.90;99.90;;;;;;4980761;28;20705;-72
2022/07/10 07:15:06;;;;;;;0.00;0.00;;;17.10;99.90;;;;;;4981565;28;20949;-73
2022/07/10 07:17:46;;;;;;;0.00;0.00;;;17.30;99.90;;;;;;4980704;28;20467;-73
2022/07/10 07:23:11;;;;;;;0.00;0.00;;;17.30;99.90;;;;;;4980914;28;20631;-73
2022/07/10 07:25:41;;;;;;;0.00;0.00;;;17.10;99.90;;;;;;4981465;28;20526;-73
2022/07/10 07:28:11;;;;;;;0.00;0.00;;;17.00;99.90;;;;;;4980991;28;20952;-74
2022/07/10 07:30:39;;;;;;;0.00;0.00;;;16.90;99.90;;;;;;4981193;28;20571;-72
2022/07/10 07:33:07;;;;;;;0.00;0.00;;;16.80;99.90;;;;;;4980945;28;20444;-72
2022/07/10 07:35:35;;;;;;;0.00;0.00;;;16.80;99.90;;;;;;4981289;28;20599;-72
2022/07/10 07:38:03;;;;;;;0.00;0.00;;;16.90;99.90;;;;;;4981935;28;20466;-74
2022/07/10 07:40:31;;;;;;;0.00;0.00;;;17.10;99.90;;;;;;4991504;28;20451;-74
2022/07/10 07:42:59;;;;;;;0.00;0.00;;;17.10;99.90;;;;;;4985288;28;20982;-74
2022/07/10 07:45:28;;;;;;;0.00;0.00;;;17.20;99.90;;;;;;4981317;28;21014;-74
2022/07/10 07:47:59;;;;;;;0.00;0.00;;;17.20;99.90;;;;;;4981114;28;20526;-74
2022/07/10 07:50:29;;;;;;;0.00;0.00;;;17.30;99.90;;;;;;4981429;28;20493;-74
2022/07/10 07:52:57;;;;;;;0.00;0.00;;;17.40;99.90;;;;;;4983184;28;20442;-74
2022/07/10 07:55:26;;;;;;;0.00;0.00;;;17.60;99.90;;;;;;4980960;28;20870;-74
2022/07/10 07:57:55;;;;;;;0.00;0.00;;;17.60;99.90;;;;;;4980779;28;20476;-74
2022/07/10 08:00:25;;;;;;;0.00;0.00;;;17.50;99.90;;;;;;4980372;28;20448;-74
2022/07/10 08:02:55;;;;;;;0.00;0.00;;;17.60;99.90;;;;;;4981232;28;21098;-74
2022/07/10 08:05:24;;;;;;;0.00;0.00;;;17.60;99.90;;;;;;4980775;28;20525;-74
2022/07/10 08:07:53;;;;;;;0.00;0.00;;;17.60;99.90;;;;;;4980798;28;20459;-74
2022/07/10 08:10:22;;;;;;;0.00;0.00;;;17.50;99.90;;;;;;4980726;28;20883;-73
2022/07/10 08:12:50;;;;;;;0.00;0.00;;;17.50;99.90;;;;;;4980654;28;20495;-73
2022/07/10 08:15:21;;;;;;;0.00;0.00;;;17.40;99.90;;;;;;4980995;28;20775;-73
2022/07/10 08:17:50;;;;;;;0.00;0.00;;;17.50;99.90;;;;;;4980823;28;20768;-74
2022/07/10 08:20:20;;;;;;;0.00;0.00;;;17.60;99.90;;;;;;4980794;28;20447;-73
2022/07/10 08:22:49;;;;;;;0.00;0.00;;;17.80;99.90;;;;;;4979842;28;20454;-73
2022/07/10 08:25:26;;;;;;;0.00;0.00;;;18.00;99.90;;;;;;4981496;28;20941;-73
2022/07/10 08:27:53;;;;;;;0.00;0.00;;;18.00;99.90;;;;;;4980078;28;20646;-73
2022/07/10 08:30:21;;;;;;;0.00;0.00;;;18.00;99.90;;;;;;4980093;28;20825;-73
2022/07/10 08:32:49;;;;;;;0.00;0.00;;;17.90;99.90;;;;;;4979572;28;20663;-73
2022/07/10 08:35:17;;;;;;;0.00;0.00;;;17.80;99.90;;;;;;4980068;28;20495;-74
2022/07/10 08:37:46;;;;;;;0.00;0.00;;;17.80;99.90;;;;;;4979645;28;21143;-74
2022/07/10 08:40:16;;;;;;;0.00;0.00;;;17.90;99.90;;;;;;4979882;28;20922;-73
2022/07/10 08:42:45;;;;;;;0.00;0.00;;;18.20;99.90;;;;;;4979488;28;20452;-74
2022/07/10 08:45:14;;;;;;;0.00;0.00;;;18.30;99.90;;;;;;4979802;28;21057;-73
2022/07/10 08:47:44;;;;;;;0.00;0.00;;;18.50;99.90;;;;;;4979929;28;20556;-73
2022/07/10 08:50:21;;;;;;;0.00;0.00;;;18.50;99.90;;;;;;4979773;28;20469;-73
2022/07/10 08:52:56;;;;;;;0.00;0.00;;;18.70;99.90;;;;;;4979840;28;20514;-73
2022/07/10 08:55:27;;;;;;;0.00;0.00;;;18.80;99.90;;;;;;4980307;28;20480;-73
2022/07/10 08:57:56;;;;;;;0.00;0.00;;;18.70;99.90;;;;;;4979554;28;20930;-74
2022/07/10 09:00:25;;;;;;;0.00;0.00;;;18.70;99.90;;;;;;4979492;28;20515;-73
2022/07/10 09:02:55;;;;;;;0.00;0.00;;;18.70;99.90;;;;;;4979442;28;20540;-73
2022/07/10 09:05:24;;;;;;;0.00;0.00;;;18.70;99.90;;;;;;4979344;28;20761;-73
2022/07/10 09:07:54;;;;;;;0.00;0.00;;;18.70;99.90;;;;;;4979395;28;20831;-73
2022/07/10 09:10:24;;;;;;;0.00;0.00;;;18.80;99.90;;;;;;4979151;28;21016;-73
2022/07/10 09:12:54;;;;;;;0.00;0.00;;;18.80;99.90;;;;;;4979429;28;20446;-73
2022/07/10 09:15:24;;;;;;;0.00;0.00;;;18.60;99.90;;;;;;4979677;28;20575;-73
2022/07/10 09:17:57;;;;;;;0.00;0.00;;;18.40;99.90;;;;;;4979026;28;20469;-73
2022/07/10 09:20:26;;;;;;;0.00;0.00;;;18.30;99.90;;;;;;4978853;28;20511;-73
2022/07/10 09:22:58;;;;;;;0.00;0.00;;;18.40;99.90;;;;;;4979539;28;20709;-73
2022/07/10 09:25:32;;;;;;;0.00;0.00;;;18.50;99.90;;;;;;4980563;28;20434;-73
2022/07/10 09:28:05;;;;;;;0.00;0.00;;;18.70;99.90;;;;;;4979834;28;20471;-73
2022/07/10 09:30:34;;;;;;;0.00;0.00;;;18.90;99.90;;;;;;4980249;28;20445;-73
2022/07/10 09:33:26;;;;;;;0.00;0.00;;;19.00;99.90;;;;;;4980645;28;20463;-75
2022/07/10 09:36:08;;;;;;;0.00;0.00;;;19.20;99.90;;;;;;4980183;28;21002;-73
2022/07/10 09:38:57;;;;;;;0.00;0.00;;;19.20;99.90;;;;;;4979667;28;20857;-73
2022/07/10 09:41:27;;;;;;;0.00;0.00;;;19.10;99.90;;;;;;4979475;28;20537;-75
2022/07/10 09:43:56;;;;;;;0.00;0.00;;;19.10;99.90;;;;;;4979896;28;20840;-74
2022/07/10 09:46:26;;;;;;;0.00;0.00;;;19.00;99.90;;;;;;4978821;28;20443;-74
2022/07/10 09:49:09;;;;;;;0.00;0.00;;;19.00;99.90;;;;;;4980728;28;20489;-74
2022/07/10 09:51:39;;;;;;;0.00;0.00;;;19.10;99.90;;;;;;4981385;28;20446;-74
2022/07/10 09:54:16;;;;;;;0.00;0.00;;;19.20;99.90;;;;;;4981313;28;21025;-73
2022/07/10 09:56:46;;;;;;;0.00;0.00;;;19.20;99.90;;;;;;4978997;28;21056;-74
2022/07/10 09:59:15;;;;;;;0.00;0.00;;;19.20;99.90;;;;;;4979094;28;20538;-74
2022/07/10 10:01:46;;;;;;;0.00;0.00;;;19.40;99.90;;;;;;4978792;28;20708;-73
2022/07/10 10:04:15;;;;;;;0.00;0.00;;;19.50;99.90;;;;;;4978531;28;20446;-73
2022/07/10 10:06:46;;;;;;;0.00;0.00;;;19.50;99.90;;;;;;4978762;28;20455;-73
2022/07/10 10:09:23;;;;;;;0.00;0.00;;;19.50;99.90;;;;;;4978930;28;20457;-73
2022/07/10 10:11:56;;;;;;;0.00;0.00;;;19.70;99.90;;;;;;4978970;28;20973;-73
2022/07/10 10:14:27;;;;;;;0.00;0.00;;;19.80;99.90;;;;;;4979257;28;20465;-73
2022/07/10 10:16:56;;;;;;;0.00;0.00;;;19.80;99.90;;;;;;4978702;28;20491;-73
2022/07/10 10:22:13;;;;;;;0.00;0.00;;;19.90;99.90;;;;;;4978919;28;20737;-73
2022/07/10 10:24:45;;;;;;;0.00;0.00;;;19.80;99.90;;;;;;4979066;28;20489;-73
2022/07/10 10:27:14;;;;;;;0.00;0.00;;;19.80;99.90;;;;;;4978140;28;20612;-73
2022/07/10 10:29:43;;;;;;;0.00;0.00;;;19.80;99.90;;;;;;4978526;28;20469;-73
2022/07/10 10:32:12;;;;;;;0.00;0.00;;;19.70;99.90;;;;;;4978680;28;20542;-75
2022/07/10 10:34:42;;;;;;;0.00;0.00;;;19.60;99.90;;;;;;4979191;28;20458;-74
2022/07/10 10:37:37;;;;;;;0.00;0.00;;;19.60;99.90;;;;;;4978554;28;20618;-74
2022/07/10 10:40:09;;;;;;;0.00;0.00;;;19.70;99.90;;;;;;4962722;28;20665;-74
2022/07/10 10:42:39;;;;;;;0.00;0.00;;;19.70;99.90;;;;;;4978318;28;20446;-73
2022/07/10 10:45:27;;;;;;;0.00;0.00;;;19.80;99.90;;;;;;4978586;28;20481;-74
2022/07/10 10:47:59;;;;;;;0.00;0.00;;;19.70;99.90;;;;;;4978455;28;20466;-73
2022/07/10 10:50:48;;;;;;;0.00;0.00;;;19.70;99.90;;;;;;4978928;28;20439;-73
2022/07/10 10:53:17;;;;;;;0.00;0.00;;;19.70;99.90;;;;;;4978486;28;21082;-73
2022/07/10 10:56:26;;;;;;;0.00;0.00;;;19.70;99.90;;;;;;4978805;28;20570;-73
2022/07/10 10:58:54;;;;;;;0.00;0.00;;;19.90;99.90;;;;;;4982356;28;20517;-73
2022/07/10 11:01:27;;;;;;;0.00;0.00;;;20.00;99.90;;;;;;4982373;28;20462;-73
2022/07/10 11:04:14;;;;;;;0.00;0.00;;;20.10;99.90;;;;;;4982043;28;20857;-73
2022/07/10 11:06:43;;;;;;;0.00;0.00;;;20.10;99.90;;;;;;4981987;28;20509;-73
2022/07/10 11:09:29;;;;;;;0.00;0.00;;;20.00;99.90;;;;;;4982194;28;20478;-73
2022/07/10 11:12:06;;;;;;;0.00;0.00;;;20.00;99.90;;;;;;4981765;28;20445;-73
2022/07/10 11:14:37;;;;;;;0.00;0.00;;;20.00;99.90;;;;;;4982045;28;20516;-74
2022/07/10 11:17:06;;;;;;;0.00;0.00;;;19.90;99.90;;;;;;4982027;28;20774;-73
2022/07/10 11:19:35;;;;;;;0.00;0.00;;;19.70;99.90;;;;;;4982732;28;20490;-72
2022/07/10 11:22:45;;;;;;;0.00;0.00;;;19.80;99.90;;;;;;4981016;28;20800;-73
2022/07/10 11:25:28;;;;;;;0.00;0.00;;;19.90;99.90;;;;;;4967229;28;20442;-73
2022/07/10 11:28:08;;;;;;;0.00;0.00;;;20.10;99.90;;;;;;4980931;28;20558;-73
2022/07/10 11:30:47;;;;;;;0.00;0.00;;;20.20;99.90;;;;;;4981543;28;20653;-73
2022/07/10 11:33:16;;;;;;;0.00;0.00;;;20.30;99.90;;;;;;4981252;28;20735;-73
2022/07/10 11:35:48;;;;;;;0.00;0.00;;;20.20;99.90;;;;;;4981042;28;20700;-73
2022/07/10 11:38:20;;;;;;;0.00;0.00;;;20.10;99.90;;;;;;4981433;28;20524;-73
2022/07/10 11:40:48;;;;;;;0.00;0.00;;;20.10;99.90;;;;;;4981463;28;20826;-73
2022/07/10 11:43:20;;;;;;;0.00;0.00;;;20.00;99.90;;;;;;4981588;28;20688;-73
2022/07/10 11:45:48;;;;;;;0.00;0.00;;;20.20;99.90;;;;;;4981412;28;20533;-73
2022/07/10 11:48:19;;;;;;;0.00;0.00;;;20.20;99.90;;;;;;4981244;28;20974;-73
2022/07/10 11:50:47;;;;;;;0.00;0.00;;;20.30;99.90;;;;;;4981169;28;20689;-73
2022/07/10 11:53:23;;;;;;;0.00;0.00;;;20.40;99.90;;;;;;4981158;28;20445;-74
2022/07/10 11:55:52;;;;;;;0.00;0.00;;;20.50;99.90;;;;;;4981186;28;20470;-73
2022/07/10 11:58:22;;;;;;;0.00;0.00;;;20.40;99.90;;;;;;4982373;28;20470;-73
2022/07/10 12:01:01;;;;;;;0.00;0.00;;;20.30;99.90;;;;;;4985706;28;20443;-73
2022/07/10 12:03:30;;;;;;;0.00;0.00;;;20.30;99.90;;;;;;4981604;28;20446;-73
2022/07/10 12:06:03;;;;;;;0.00;0.00;;;20.30;99.90;;;;;;4980870;28;20812;-73
2022/07/10 12:08:44;;;;;;;0.00;0.00;;;20.50;99.90;;;;;;4980077;28;20477;-74
2022/07/10 12:11:13;;;;;;;0.00;0.00;;;20.70;99.90;;;;;;4980778;28;20471;-74
2022/07/10 12:13:43;;;;;;;0.00;0.00;;;20.80;99.90;;;;;;4980702;28;20528;-74
2022/07/10 12:16:11;;;;;;;0.00;0.00;;;20.90;99.90;;;;;;4980155;28;20505;-74
2022/07/10 12:18:41;;;;;;;0.00;0.00;;;21.00;99.90;;;;;;4980521;28;20724;-73
2022/07/10 12:21:12;;;;;;;0.00;0.00;;;21.10;99.90;;;;;;4980461;28;20443;-73
2022/07/10 12:23:41;;;;;;;0.00;0.00;;;21.20;99.90;;;;;;4980223;28;20546;-73
2022/07/10 12:26:10;;;;;;;0.00;0.00;;;21.20;99.90;;;;;;4980516;28;20447;-73
2022/07/10 12:28:58;;;;;;;0.00;0.00;;;21.20;99.90;;;;;;4980384;28;20527;-73
2022/07/10 12:31:28;;;;;;;0.00;0.00;;;21.10;99.90;;;;;;4980311;28;21003;-73
2022/07/10 12:34:01;;;;;;;0.00;0.00;;;21.00;99.90;;;;;;4980708;28;20441;-73
2022/07/10 12:36:45;;;;;;;0.00;0.00;;;20.90;99.90;;;;;;4980077;28;20486;-73
2022/07/10 12:39:14;;;;;;;0.00;0.00;;;20.70;99.90;;;;;;4980254;28;20968;-73
2022/07/10 12:41:59;;;;;;;0.00;0.00;;;20.50;99.90;;;;;;4980241;28;20691;-73
2022/07/10 12:44:37;;;;;;;0.00;0.00;;;20.40;99.90;;;;;;4980560;28;20465;-73
2022/07/10 12:47:11;;;;;;;0.00;0.00;;;20.40;99.90;;;;;;4980352;28;20455;-73
2022/07/10 12:49:54;;;;;;;0.00;0.00;;;20.50;99.90;;;;;;4980765;28;20439;-73
2022/07/10 12:52:26;;;;;;;0.00;0.00;;;20.40;99.90;;;;;;4979972;28;20469;-73
2022/07/10 12:55:13;;;;;;;0.00;0.00;;;20.50;99.90;;;;;;4979946;28;20798;-74
2022/07/10 12:57:52;;;;;;;0.00;0.00;;;20.60;99.90;;;;;;4980040;28;20509;-73
2022/07/10 13:00:22;;;;;;;0.00;0.00;;;20.60;99.90;;;;;;4980137;28;20585;-73
2022/07/10 13:02:57;;;;;;;0.00;0.00;;;20.50;99.90;;;;;;4979547;28;20461;-74
2022/07/10 13:05:30;;;;;;;0.00;0.00;;;20.40;99.90;;;;;;4980079;28;20462;-74
2022/07/10 13:08:12;;;;;;;0.00;0.00;;;20.40;99.90;;;;;;4979423;28;20777;-73
2022/07/10 13:10:41;;;;;;;0.00;0.00;;;20.50;99.90;;;;;;4979439;28;20439;-73
2022/07/10 13:13:09;;;;;;;0.00;0.00;;;20.60;99.90;;;;;;4979364;28;20435;-73
2022/07/10 13:15:45;;;;;;;0.00;0.00;;;20.60;99.90;;;;;;4979577;28;20803;-73
2022/07/10 13:18:14;;;;;;;0.00;0.00;;;20.60;99.90;;;;;;4979330;28;20510;-73
2022/07/10 13:20:42;;;;;;;0.00;0.00;;;20.60;99.90;;;;;;4978948;28;20479;-73
2022/07/10 13:23:10;;;;;;;0.00;0.00;;;20.60;99.90;;;;;;4978945;28;20732;-73
2022/07/10 13:25:39;;;;;;;0.00;0.00;;;20.60;99.90;;;;;;4978924;28;20961;-73